createdAt,value
2022-12-18T00:01:35.210Z,-9.20
2022-12-18T00:04:03.573Z,-9.20
2022-12-18T00:06:33.653Z,-9.20
2022-12-18T00:09:00.741Z,-9.30
2022-12-18T00:11:28.601Z,-9.30
2022-12-18T00:13:56.482Z,-9.30
2022-12-18T00:16:24.257Z,-9.30
2022-12-18T00:18:52.822Z,-9.30
2022-12-18T00:21:20.439Z,-9.30
2022-12-18T00:23:47.766Z,-9.40
2022-12-18T00:26:16.107Z,-9.40
2022-12-18T00:28:43.971Z,-9.40
2022-12-18T00:31:12.530Z,-9.40
2022-12-18T00:33:40.280Z,-9.40
2022-12-18T00:36:12.993Z,-9.40
2022-12-18T00:38:40.062Z,-9.40
2022-12-18T00:41:08.178Z,-9.50
2022-12-18T00:43:37.292Z,-9.50
2022-12-18T00:46:04.847Z,-9.50
2022-12-18T00:48:32.402Z,-9.50
2022-12-18T00:50:59.132Z,-9.50
2022-12-18T00:53:25.875Z,-9.50
2022-12-18T00:55:52.589Z,-9.50
2022-12-18T00:58:19.240Z,-9.50
2022-12-18T01:00:46.073Z,-9.50
2022-12-18T01:03:15.889Z,-9.50
2022-12-18T01:05:44.396Z,-9.50
2022-12-18T01:08:12.016Z,-9.60
2022-12-18T01:10:42.006Z,-9.60
2022-12-18T01:13:08.815Z,-9.60
2022-12-18T01:15:36.171Z,-9.60
2022-12-18T01:18:02.965Z,-9.60
2022-12-18T01:20:29.626Z,-9.60
2022-12-18T01:22:56.373Z,-9.60
2022-12-18T01:25:23.062Z,-9.60
2022-12-18T01:27:51.066Z,-9.60
2022-12-18T01:30:17.798Z,-9.70
2022-12-18T01:32:45.791Z,-9.70
2022-12-18T01:35:12.560Z,-9.70
2022-12-18T01:37:39.261Z,-9.70
2022-12-18T01:40:06.346Z,-9.70
2022-12-18T01:42:33.106Z,-9.70
2022-12-18T01:45:01.385Z,-9.70
2022-12-18T01:47:40.172Z,-9.70
2022-12-18T01:50:09.884Z,-9.60
2022-12-18T01:52:37.983Z,-9.60
2022-12-18T01:55:05.635Z,-9.60
2022-12-18T01:57:32.291Z,-9.60
2022-12-18T02:00:02.494Z,-9.50
2022-12-18T02:02:40.384Z,-9.50
2022-12-18T02:05:07.996Z,-9.50
2022-12-18T02:07:35.747Z,-9.50
2022-12-18T02:10:07.204Z,-9.40
2022-12-18T02:12:46.118Z,-9.40
2022-12-18T02:15:12.851Z,-9.40
2022-12-18T02:17:47.756Z,-9.30
2022-12-18T02:20:21.524Z,-9.30
2022-12-18T02:22:58.317Z,-9.30
2022-12-18T02:25:44.000Z,-9.30
2022-12-18T02:28:13.363Z,-9.20
2022-12-18T02:30:40.817Z,-9.20
2022-12-18T02:33:09.572Z,-9.20
2022-12-18T02:35:37.313Z,-9.20
2022-12-18T02:38:04.703Z,-9.20
2022-12-18T02:40:35.802Z,-9.20
2022-12-18T02:43:04.365Z,-9.10
2022-12-18T02:45:32.253Z,-9.20
2022-12-18T02:47:59.210Z,-9.20
2022-12-18T02:50:26.218Z,-9.10
2022-12-18T02:53:12.379Z,-9.20
2022-12-18T02:55:45.752Z,-9.10
2022-12-18T02:58:28.951Z,-9.20
2022-12-18T03:01:10.212Z,-9.20
2022-12-18T03:03:42.730Z,-9.10
2022-12-18T03:06:29.967Z,-9.10
2022-12-18T03:09:02.024Z,-9.10
2022-12-18T03:11:51.077Z,-9.10
2022-12-18T03:14:18.442Z,-9.00
2022-12-18T03:16:48.297Z,-8.90
2022-12-18T03:19:18.051Z,-8.90
2022-12-18T03:21:46.816Z,-8.80
2022-12-18T03:24:16.160Z,-8.80
2022-12-18T03:26:45.516Z,-8.80
2022-12-18T03:29:18.533Z,-8.80
2022-12-18T03:31:48.520Z,-8.70
2022-12-18T03:34:18.293Z,-8.70
2022-12-18T03:36:47.034Z,-8.80
2022-12-18T03:39:14.854Z,-8.70
2022-12-18T03:41:46.644Z,-8.70
2022-12-18T03:44:32.801Z,-8.70
2022-12-18T03:47:00.071Z,-8.70
2022-12-18T03:49:32.633Z,-8.70
2022-12-18T03:52:04.011Z,-8.80
2022-12-18T03:54:32.269Z,-8.80
2022-12-18T03:57:12.836Z,-8.80
2022-12-18T03:59:40.138Z,-8.80
2022-12-18T04:02:09.154Z,-8.80
2022-12-18T04:04:39.087Z,-8.80
2022-12-18T04:07:06.157Z,-8.90
2022-12-18T04:09:35.429Z,-8.90
2022-12-18T04:12:02.227Z,-8.90
2022-12-18T04:14:30.224Z,-8.90
2022-12-18T04:16:57.667Z,-8.90
2022-12-18T04:19:32.001Z,-8.90
2022-12-18T04:22:02.449Z,-8.90
2022-12-18T04:24:33.967Z,-8.90
2022-12-18T04:27:23.229Z,-8.90
2022-12-18T04:29:51.157Z,-8.90
2022-12-18T04:32:18.726Z,-8.90
2022-12-18T04:34:45.547Z,-8.90
2022-12-18T04:37:12.395Z,-8.90
2022-12-18T04:39:40.088Z,-8.90
2022-12-18T04:42:13.483Z,-8.90
2022-12-18T04:44:40.228Z,-8.90
2022-12-18T04:47:07.004Z,-8.90
2022-12-18T04:49:33.726Z,-8.90
2022-12-18T04:52:00.428Z,-8.90
2022-12-18T04:54:27.155Z,-8.90
2022-12-18T04:56:53.850Z,-8.90
2022-12-18T04:59:21.906Z,-8.90
2022-12-18T05:01:48.725Z,-9.00
2022-12-18T05:04:15.693Z,-9.00
2022-12-18T05:06:42.536Z,-9.00
2022-12-18T05:09:09.226Z,-9.10
2022-12-18T05:11:36.743Z,-9.10
2022-12-18T05:14:03.483Z,-9.20
2022-12-18T05:16:30.296Z,-9.20
2022-12-18T05:18:57.596Z,-9.20
2022-12-18T05:21:24.303Z,-9.30
2022-12-18T05:23:51.121Z,-9.30
2022-12-18T05:26:18.797Z,-9.30
2022-12-18T05:28:45.880Z,-9.30
2022-12-18T05:31:12.619Z,-9.40
2022-12-18T05:33:39.692Z,-9.40
2022-12-18T05:36:07.443Z,-9.40
2022-12-18T05:38:35.283Z,-9.30
2022-12-18T05:41:02.669Z,-9.30
2022-12-18T05:43:29.958Z,-9.30
2022-12-18T05:45:57.772Z,-9.30
2022-12-18T05:48:24.453Z,-9.30
2022-12-18T05:50:51.447Z,-9.30
2022-12-18T05:53:19.103Z,-9.30
2022-12-18T05:55:45.994Z,-9.30
2022-12-18T05:58:13.413Z,-9.40
2022-12-18T06:00:41.093Z,-9.40
2022-12-18T06:03:08.793Z,-9.40
2022-12-18T06:05:36.851Z,-9.40
2022-12-18T06:08:03.633Z,-9.50
2022-12-18T06:10:30.383Z,-9.40
2022-12-18T06:12:57.132Z,-9.50
2022-12-18T06:15:24.031Z,-9.50
2022-12-18T06:17:51.016Z,-9.50
2022-12-18T06:20:17.905Z,-9.50
2022-12-18T06:22:44.828Z,-9.60
2022-12-18T06:25:11.651Z,-9.50
2022-12-18T06:27:38.388Z,-9.60
2022-12-18T06:30:05.637Z,-9.60
2022-12-18T06:32:32.514Z,-9.60
2022-12-18T06:34:59.227Z,-9.60
2022-12-18T06:37:27.264Z,-9.70
2022-12-18T06:39:54.696Z,-9.70
2022-12-18T06:42:24.816Z,-9.70
2022-12-18T06:44:51.665Z,-9.70
2022-12-18T06:47:18.995Z,-9.70
2022-12-18T06:49:45.673Z,-9.70
2022-12-18T06:52:12.408Z,-9.80
2022-12-18T06:54:39.155Z,-9.80
2022-12-18T06:57:05.977Z,-9.80
2022-12-18T06:59:32.699Z,-9.80
2022-12-18T07:01:59.652Z,-9.80
2022-12-18T07:04:30.647Z,-9.80
2022-12-18T07:06:58.256Z,-9.90
2022-12-18T07:09:25.188Z,-9.90
2022-12-18T07:11:52.851Z,-9.90
2022-12-18T07:14:19.572Z,-9.90
2022-12-18T07:16:46.381Z,-9.90
2022-12-18T07:19:13.135Z,-9.90
2022-12-18T07:21:39.913Z,-9.90
2022-12-18T07:24:07.161Z,-9.90
2022-12-18T07:26:33.866Z,-9.80
2022-12-18T07:29:00.724Z,-9.80
2022-12-18T07:31:27.915Z,-9.80
2022-12-18T07:33:55.016Z,-9.80
2022-12-18T07:36:21.757Z,-9.80
2022-12-18T07:38:49.193Z,-9.80
2022-12-18T07:41:16.027Z,-9.80
2022-12-18T07:43:43.694Z,-9.80
2022-12-18T07:46:11.843Z,-9.70
2022-12-18T07:48:41.085Z,-9.70
2022-12-18T07:51:08.372Z,-9.70
2022-12-18T07:53:35.561Z,-9.70
2022-12-18T07:56:26.386Z,-9.60
2022-12-18T07:58:50.298Z,-9.60
2022-12-18T08:01:17.120Z,-9.60
2022-12-18T08:03:44.194Z,-9.50
2022-12-18T08:06:11.037Z,-9.50
2022-12-18T08:08:38.003Z,-9.50
2022-12-18T08:11:04.769Z,-9.40
2022-12-18T08:13:31.729Z,-9.40
2022-12-18T08:15:59.833Z,-9.40
2022-12-18T08:18:26.850Z,-9.30
2022-12-18T08:20:53.636Z,-9.30
2022-12-18T08:23:20.474Z,-9.20
2022-12-18T08:25:47.170Z,-9.20
2022-12-18T08:28:13.851Z,-9.20
2022-12-18T08:30:40.555Z,-9.10
2022-12-18T08:33:07.777Z,-9.10
2022-12-18T08:35:42.457Z,-9.00
2022-12-18T08:38:12.343Z,-8.90
2022-12-18T08:40:39.032Z,-8.90
2022-12-18T08:43:24.841Z,-8.80
2022-12-18T08:45:51.649Z,-8.70
2022-12-18T08:48:22.192Z,-8.60
2022-12-18T08:50:59.340Z,-8.60
2022-12-18T08:53:29.264Z,-8.50
2022-12-18T08:55:59.412Z,-8.40
2022-12-18T08:58:26.214Z,-8.40
2022-12-18T09:00:52.967Z,-8.30
2022-12-18T09:03:20.543Z,-8.20
2022-12-18T09:05:47.870Z,-8.20
2022-12-18T09:08:15.114Z,-8.10
2022-12-18T09:10:45.445Z,-8.00
2022-12-18T09:13:12.871Z,-7.90
2022-12-18T09:15:47.126Z,-7.90
2022-12-18T09:18:14.416Z,-7.80
2022-12-18T09:20:41.218Z,-7.70
2022-12-18T09:23:08.410Z,-7.60
2022-12-18T09:25:36.721Z,-7.50
2022-12-18T09:28:04.777Z,-7.50
2022-12-18T09:30:34.379Z,-7.40
2022-12-18T09:33:01.989Z,-7.30
2022-12-18T09:35:28.889Z,-7.30
2022-12-18T09:37:55.686Z,-7.20
2022-12-18T09:40:25.259Z,-7.20
2022-12-18T09:42:57.018Z,-7.00
2022-12-18T09:45:24.583Z,-6.90
2022-12-18T09:47:52.489Z,-6.90
2022-12-18T09:50:34.552Z,-6.80
2022-12-18T09:53:14.547Z,-6.70
2022-12-18T09:55:43.037Z,-6.60
2022-12-18T09:58:13.463Z,-6.60
2022-12-18T10:00:40.704Z,-6.50
2022-12-18T10:03:12.187Z,-6.50
2022-12-18T10:05:47.207Z,-6.40
2022-12-18T10:08:24.442Z,-6.40
2022-12-18T10:10:58.683Z,-6.30
2022-12-18T10:13:37.538Z,-6.30
2022-12-18T10:16:14.194Z,-6.20
2022-12-18T10:18:48.296Z,-6.20
2022-12-18T10:21:18.833Z,-6.10
2022-12-18T10:24:01.659Z,-6.00
2022-12-18T10:26:28.462Z,-6.00
2022-12-18T10:28:55.342Z,-5.90
2022-12-18T10:31:24.815Z,-5.80
2022-12-18T10:33:52.221Z,-5.80
2022-12-18T10:36:18.933Z,-5.70
2022-12-18T10:38:45.647Z,-5.60
2022-12-18T10:41:15.464Z,-5.60
2022-12-18T10:43:42.652Z,-5.50
2022-12-18T10:46:09.405Z,-5.50
2022-12-18T10:48:36.387Z,-5.40
2022-12-18T10:51:12.806Z,-5.30
2022-12-18T10:53:41.698Z,-5.30
2022-12-18T10:56:08.404Z,-5.20
2022-12-18T10:58:36.245Z,-5.20
2022-12-18T11:01:13.858Z,-5.10
2022-12-18T11:03:40.878Z,-5.10
2022-12-18T11:06:09.462Z,-5.00
2022-12-18T11:08:37.693Z,-4.90
2022-12-18T11:11:07.922Z,-4.80
2022-12-18T11:13:34.958Z,-4.70
2022-12-18T11:16:01.826Z,-4.60
2022-12-18T11:18:28.818Z,-4.60
2022-12-18T11:20:59.060Z,-4.50
2022-12-18T11:23:26.415Z,-4.50
2022-12-18T11:25:57.912Z,-4.50
2022-12-18T11:28:39.002Z,-4.50
2022-12-18T11:31:23.605Z,-4.40
2022-12-18T11:36:59.304Z,-4.30
2022-12-18T11:39:31.771Z,-4.20
2022-12-18T11:42:19.088Z,-4.20
2022-12-18T11:44:49.355Z,-4.10
2022-12-18T11:47:34.636Z,-4.10
2022-12-18T11:50:02.193Z,-4.10
2022-12-18T11:52:32.994Z,-4.10
2022-12-18T11:55:01.256Z,-4.10
2022-12-18T11:57:48.088Z,-4.10
2022-12-18T12:00:19.343Z,-4.00
2022-12-18T12:03:00.629Z,-4.00
2022-12-18T12:05:27.516Z,-3.90
2022-12-18T12:08:12.135Z,-3.90
2022-12-18T12:10:47.690Z,-3.80
2022-12-18T12:13:20.501Z,-3.80
2022-12-18T12:16:05.886Z,-3.70
2022-12-18T12:18:38.628Z,-3.70
2022-12-18T12:21:23.988Z,-3.70
2022-12-18T12:23:59.765Z,-3.70
2022-12-18T12:26:36.069Z,-3.70
2022-12-18T12:29:21.682Z,-3.70
2022-12-18T12:32:00.268Z,-3.60
2022-12-18T12:34:27.519Z,-3.60
2022-12-18T12:37:09.345Z,-3.60
2022-12-18T12:39:37.439Z,-3.50
2022-12-18T12:42:25.098Z,-3.50
2022-12-18T12:44:56.541Z,-3.50
2022-12-18T12:47:26.713Z,-3.50
2022-12-18T12:49:54.618Z,-3.40
2022-12-18T12:52:35.979Z,-3.40
2022-12-18T12:55:07.095Z,-3.40
2022-12-18T12:57:42.581Z,-3.30
2022-12-18T13:00:12.640Z,-3.30
2022-12-18T13:02:58.428Z,-3.20
2022-12-18T13:05:35.560Z,-3.10
2022-12-18T13:08:10.814Z,-3.10
2022-12-18T13:10:39.192Z,-3.10
2022-12-18T13:13:18.649Z,-3.10
2022-12-18T13:16:03.951Z,-3.10
2022-12-18T13:18:30.910Z,-3.10
2022-12-18T13:21:01.525Z,-3.10
2022-12-18T13:23:30.249Z,-3.10
2022-12-18T13:25:57.551Z,-3.10
2022-12-18T13:28:33.948Z,-3.10
2022-12-18T13:31:02.046Z,-3.10
2022-12-18T13:33:34.865Z,-3.00
2022-12-18T13:36:16.196Z,-3.00
2022-12-18T13:38:44.498Z,-3.00
2022-12-18T13:41:14.295Z,-2.90
2022-12-18T13:43:44.680Z,-2.80
2022-12-18T13:46:50.752Z,-2.80
2022-12-18T13:49:26.107Z,-2.80
2022-12-18T13:51:55.110Z,-2.80
2022-12-18T13:54:24.966Z,-2.80
2022-12-18T13:56:52.057Z,-2.80
2022-12-18T13:59:18.811Z,-2.80
2022-12-18T14:01:59.948Z,-2.70
2022-12-18T14:04:30.881Z,-2.70
2022-12-18T14:07:05.581Z,-2.80
2022-12-18T14:09:36.687Z,-2.80
2022-12-18T14:12:23.140Z,-2.90
2022-12-18T14:14:54.254Z,-2.90
2022-12-18T14:17:23.958Z,-2.90
2022-12-18T14:19:51.894Z,-3.00
2022-12-18T14:22:20.841Z,-3.00
2022-12-18T14:24:48.346Z,-3.00
2022-12-18T14:27:38.244Z,-3.00
2022-12-18T14:30:24.197Z,-3.00
2022-12-18T14:33:09.429Z,-3.10
2022-12-18T14:35:38.810Z,-3.10
2022-12-18T14:38:21.514Z,-3.20
2022-12-18T14:40:48.665Z,-3.20
2022-12-18T14:43:15.482Z,-3.20
2022-12-18T14:45:44.391Z,-3.20
2022-12-18T14:48:22.984Z,-3.20
2022-12-18T14:51:03.656Z,-3.20
2022-12-18T14:53:34.426Z,-3.20
2022-12-18T14:56:01.427Z,-3.30
2022-12-18T14:58:28.610Z,-3.30
2022-12-18T15:00:56.004Z,-3.30
2022-12-18T15:03:23.760Z,-3.40
2022-12-18T15:05:51.882Z,-3.40
2022-12-18T15:08:29.698Z,-3.40
2022-12-18T15:10:57.440Z,-3.50
2022-12-18T15:13:25.845Z,-3.50
2022-12-18T15:15:53.718Z,-3.50
2022-12-18T15:18:22.631Z,-3.60
2022-12-18T15:20:50.627Z,-3.60
2022-12-18T15:23:17.435Z,-3.70
2022-12-18T15:25:44.303Z,-3.70
2022-12-18T15:28:37.667Z,-3.70
2022-12-18T15:31:15.098Z,-3.80
2022-12-18T15:33:51.365Z,-3.80
2022-12-18T15:36:20.844Z,-3.90
2022-12-18T15:38:55.159Z,-3.90
2022-12-18T15:41:24.870Z,-4.00
2022-12-18T15:43:52.449Z,-4.00
2022-12-18T15:46:20.514Z,-4.10
2022-12-18T15:48:48.981Z,-4.10
2022-12-18T15:51:18.713Z,-4.10
2022-12-18T15:53:45.787Z,-4.20
2022-12-18T15:56:31.833Z,-4.20
2022-12-18T15:58:58.853Z,-4.20
2022-12-18T16:01:27.037Z,-4.20
2022-12-18T16:03:55.003Z,-4.30
2022-12-18T16:06:22.341Z,-4.30
2022-12-18T16:08:49.419Z,-4.30
2022-12-18T16:11:38.907Z,-4.30
2022-12-18T16:14:07.253Z,-4.40
2022-12-18T16:16:34.050Z,-4.40
2022-12-18T16:19:00.818Z,-4.40
2022-12-18T16:21:33.817Z,-4.40
2022-12-18T16:24:01.315Z,-4.40
2022-12-18T16:26:27.973Z,-4.40
2022-12-18T16:28:55.978Z,-4.30
2022-12-18T16:31:22.918Z,-4.30
2022-12-18T16:33:49.752Z,-4.30
2022-12-18T16:36:16.708Z,-4.30
2022-12-18T16:38:43.443Z,-4.30
2022-12-18T16:41:34.281Z,-4.30
2022-12-18T16:44:01.326Z,-4.30
2022-12-18T16:46:28.141Z,-4.20
2022-12-18T16:48:55.093Z,-4.20
2022-12-18T16:51:21.985Z,-4.20
2022-12-18T16:53:48.815Z,-4.20
2022-12-18T16:56:15.578Z,-4.20
2022-12-18T16:58:42.507Z,-4.10
2022-12-18T17:01:10.629Z,-4.10
2022-12-18T17:03:37.879Z,-4.10
2022-12-18T17:06:05.912Z,-4.10
2022-12-18T17:08:32.741Z,-4.10
2022-12-18T17:11:08.652Z,-4.00
2022-12-18T17:13:35.551Z,-4.00
2022-12-18T17:16:06.690Z,-4.00
2022-12-18T17:18:34.750Z,-3.90
2022-12-18T17:21:02.224Z,-3.90
2022-12-18T17:23:30.161Z,-3.90
2022-12-18T17:25:57.736Z,-3.90
2022-12-18T17:28:25.838Z,-3.90
2022-12-18T17:30:53.173Z,-3.90
2022-12-18T17:33:20.034Z,-3.80
2022-12-18T17:35:46.833Z,-3.80
2022-12-18T17:38:15.369Z,-3.80
2022-12-18T17:40:46.390Z,-3.80
2022-12-18T17:43:13.547Z,-3.80
2022-12-18T17:45:40.783Z,-3.80
2022-12-18T17:48:08.281Z,-3.80
2022-12-18T17:50:35.559Z,-3.70
2022-12-18T17:53:02.688Z,-3.80
2022-12-18T17:55:29.892Z,-3.80
2022-12-18T17:57:56.606Z,-3.70
2022-12-18T18:00:23.356Z,-3.70
2022-12-18T18:02:50.444Z,-3.70
2022-12-18T18:05:17.655Z,-3.70
2022-12-18T18:07:45.071Z,-3.70
2022-12-18T18:10:11.982Z,-3.70
2022-12-18T18:12:57.537Z,-3.70
2022-12-18T18:15:24.179Z,-3.70
2022-12-18T18:17:50.972Z,-3.70
2022-12-18T18:20:22.289Z,-3.70
2022-12-18T18:22:49.655Z,-3.70
2022-12-18T18:25:17.081Z,-3.60
2022-12-18T18:27:44.897Z,-3.70
2022-12-18T18:30:14.497Z,-3.70
2022-12-18T18:32:41.462Z,-3.70
2022-12-18T18:35:19.389Z,-3.60
2022-12-18T18:37:55.790Z,-3.60
2022-12-18T18:40:22.544Z,-3.60
2022-12-18T18:42:49.489Z,-3.60
2022-12-18T18:45:16.263Z,-3.60
2022-12-18T18:47:43.145Z,-3.60
2022-12-18T18:50:12.705Z,-3.60
2022-12-18T18:52:39.740Z,-3.60
2022-12-18T18:55:25.238Z,-3.60
2022-12-18T18:57:52.522Z,-3.60
2022-12-18T19:00:19.373Z,-3.60
2022-12-18T19:02:46.217Z,-3.60
2022-12-18T19:05:13.216Z,-3.60
2022-12-18T19:07:39.882Z,-3.60
2022-12-18T19:10:07.086Z,-3.50
2022-12-18T19:12:53.254Z,-3.50
2022-12-18T19:15:21.881Z,-3.50
2022-12-18T19:17:49.019Z,-3.50
2022-12-18T19:20:16.154Z,-3.50
2022-12-18T19:22:43.223Z,-3.50
2022-12-18T19:25:11.703Z,-3.50
2022-12-18T19:27:40.296Z,-3.50
2022-12-18T19:30:07.292Z,-3.50
2022-12-18T19:32:34.243Z,-3.40
2022-12-18T19:35:01.116Z,-3.40
2022-12-18T19:37:28.544Z,-3.40
2022-12-18T19:39:56.715Z,-3.40
2022-12-18T19:42:29.274Z,-3.40
2022-12-18T19:45:00.237Z,-3.40
2022-12-18T19:47:27.328Z,-3.30
2022-12-18T19:49:54.293Z,-3.40
2022-12-18T19:52:21.103Z,-3.40
2022-12-18T19:54:47.965Z,-3.30
2022-12-18T19:57:14.812Z,-3.30
2022-12-18T19:59:41.795Z,-3.30
2022-12-18T20:02:13.941Z,-3.30
2022-12-18T20:04:40.955Z,-3.30
2022-12-18T20:07:07.837Z,-3.20
2022-12-18T20:09:37.037Z,-3.20
2022-12-18T20:12:07.890Z,-3.20
2022-12-18T20:14:35.214Z,-3.20
2022-12-18T20:17:02.035Z,-3.20
2022-12-18T20:19:29.414Z,-3.20
2022-12-18T20:21:56.788Z,-3.20
2022-12-18T20:24:23.647Z,-3.20
2022-12-18T20:26:50.371Z,-3.20
2022-12-18T20:29:17.462Z,-3.20
2022-12-18T20:31:44.308Z,-3.20
2022-12-18T20:34:11.160Z,-3.20
2022-12-18T20:36:38.797Z,-3.10
2022-12-18T20:39:07.679Z,-3.10
2022-12-18T20:41:39.343Z,-3.10
2022-12-18T20:44:15.541Z,-3.10
2022-12-18T20:46:49.900Z,-3.10
2022-12-18T20:49:16.735Z,-3.10
2022-12-18T20:51:43.576Z,-3.00
2022-12-18T20:54:11.881Z,-3.00
2022-12-18T20:56:38.874Z,-3.00
2022-12-18T20:59:05.771Z,-3.00
2022-12-18T21:01:32.725Z,-3.00
2022-12-18T21:04:00.659Z,-2.90
2022-12-18T21:06:27.505Z,-2.90
2022-12-18T21:08:54.346Z,-2.90
2022-12-18T21:11:39.962Z,-2.90
2022-12-18T21:14:09.899Z,-2.90
2022-12-18T21:16:36.933Z,-2.90
2022-12-18T21:19:03.794Z,-2.90
2022-12-18T21:21:30.669Z,-2.90
2022-12-18T21:24:05.856Z,-2.90
2022-12-18T21:26:32.782Z,-2.90
2022-12-18T21:29:00.725Z,-2.90
2022-12-18T21:31:28.725Z,-2.80
2022-12-18T21:33:59.788Z,-2.80
2022-12-18T21:36:29.622Z,-2.80
2022-12-18T21:38:56.473Z,-2.80
2022-12-18T21:41:42.512Z,-2.80
2022-12-18T21:44:10.810Z,-2.70
2022-12-18T21:46:39.059Z,-2.70
2022-12-18T21:49:06.961Z,-2.70
2022-12-18T21:51:34.160Z,-2.70
2022-12-18T21:54:01.005Z,-2.60
2022-12-18T21:56:42.760Z,-2.60
2022-12-18T21:59:09.783Z,-2.60
2022-12-18T22:01:37.714Z,-2.60
2022-12-18T22:04:04.791Z,-2.50
2022-12-18T22:06:31.594Z,-2.50
2022-12-18T22:08:58.398Z,-2.50
2022-12-18T22:11:25.220Z,-2.50
2022-12-18T22:13:52.323Z,-2.50
2022-12-18T22:16:19.070Z,-2.40
2022-12-18T22:18:45.918Z,-2.40
2022-12-18T22:21:28.767Z,-2.30
2022-12-18T22:24:06.101Z,-2.30
2022-12-18T22:26:39.453Z,-2.30
2022-12-18T22:29:26.206Z,-2.30
2022-12-18T22:31:53.023Z,-2.30
2022-12-18T22:34:22.974Z,-2.30
2022-12-18T22:36:50.798Z,-2.30
2022-12-18T22:39:21.189Z,-2.20
2022-12-18T22:41:48.205Z,-2.20
2022-12-18T22:44:17.537Z,-2.20
2022-12-18T22:46:46.233Z,-2.20
2022-12-18T22:49:17.544Z,-2.20
2022-12-18T22:51:44.760Z,-2.10
2022-12-18T22:54:12.066Z,-2.10
2022-12-18T22:56:39.312Z,-2.10
2022-12-18T22:59:06.307Z,-2.10
2022-12-18T23:01:33.504Z,-2.00
2022-12-18T23:04:02.471Z,-2.00
2022-12-18T23:06:29.343Z,-2.00
2022-12-18T23:08:58.073Z,-2.00
2022-12-18T23:11:25.566Z,-2.00
2022-12-18T23:13:52.612Z,-2.00
2022-12-18T23:16:23.434Z,-2.00
2022-12-18T23:18:54.246Z,-2.00
2022-12-18T23:21:21.800Z,-2.00
2022-12-18T23:23:49.917Z,-1.90
2022-12-18T23:26:18.364Z,-1.90
2022-12-18T23:28:45.525Z,-1.90
2022-12-18T23:31:13.518Z,-1.90
2022-12-18T23:33:42.458Z,-1.80
2022-12-18T23:36:10.184Z,-1.80
2022-12-18T23:38:37.299Z,-1.80
2022-12-18T23:41:10.678Z,-1.80
2022-12-18T23:43:37.989Z,-1.80
2022-12-18T23:46:19.116Z,-1.80
2022-12-18T23:48:46.575Z,-1.80
2022-12-18T23:51:13.867Z,-1.80
2022-12-18T23:53:41.142Z,-1.80
2022-12-18T23:56:08.519Z,-1.70
2022-12-18T23:58:36.281Z,-1.70
